Time;durP1;ratioP1;P1;durP2;ratioP2;P2;SDS_P1;SDS_P2;PMS_P1;PMS_P2;Temp;Humidity;BMP_temperature;BMP_pressure;BME280_temperature;BME280_humidity;BME280_pressure;Samples;Min_cycle;Max_cycle;Signal;HPM_P1;HPM_P2
2023/01/10 00:03:01;;;;;;;17.00;8.30;;;;;;;4.69;100.00;98849.23;109652;1252;70309;-71
2023/01/10 00:05:49;;;;;;;18.00;8.90;;;;;;;4.72;100.00;98869.55;109582;1253;71321;-70
2023/01/10 00:08:38;;;;;;;17.90;8.50;;;;;;;4.72;100.00;98872.87;109504;1252;57059;-68
2023/01/10 00:14:35;;;;;;;17.10;8.20;;;;;;;4.68;100.00;98869.85;109574;1253;72004;-67
2023/01/10 00:17:23;;;;;;;18.10;8.60;;;;;;;4.69;100.00;98866.13;109615;1251;67682;-67
2023/01/10 00:20:13;;;;;;;18.60;8.50;;;;;;;4.67;100.00;98869.02;109581;1253;74120;-68
2023/01/10 00:23:02;;;;;;;15.90;8.40;;;;;;;4.67;100.00;98867.98;109474;1253;61059;-68
2023/01/10 00:25:49;;;;;;;17.50;8.60;;;;;;;4.66;100.00;98868.45;108103;1253;1002420;-67
2023/01/10 00:28:38;;;;;;;18.40;8.70;;;;;;;4.66;100.00;98867.73;109676;1253;71974;-69
2023/01/10 00:31:26;;;;;;;17.60;8.10;;;;;;;4.67;100.00;98868.92;109639;1253;66674;-69
2023/01/10 00:34:14;;;;;;;17.50;8.00;;;;;;;4.65;100.00;98870.77;109624;1251;72780;-68
2023/01/10 00:37:02;;;;;;;17.00;8.20;;;;;;;4.63;100.00;98873.70;109622;1252;60241;-68
2023/01/10 00:39:49;;;;;;;18.20;7.40;;;;;;;4.61;100.00;98873.85;109649;1253;60027;-70
2023/01/10 00:45:45;;;;;;;17.10;7.70;;;;;;;4.59;100.00;98884.70;109603;1253;66611;-78
2023/01/10 00:48:33;;;;;;;18.50;8.20;;;;;;;4.60;100.00;98892.23;109584;1251;72608;-71
2023/01/10 00:51:21;;;;;;;15.80;7.30;;;;;;;4.58;100.00;98899.16;109644;1252;57737;-70
2023/01/10 00:54:11;;;;;;;14.60;6.80;;;;;;;4.59;100.00;98908.74;109624;1251;60285;-71
2023/01/10 00:56:59;;;;;;;14.70;6.70;;;;;;;4.61;100.00;98924.12;109610;1252;71020;-70
2023/01/10 00:59:47;;;;;;;13.90;6.60;;;;;;;4.60;100.00;98935.10;109645;1251;67594;-70
2023/01/10 01:02:35;;;;;;;14.40;7.20;;;;;;;4.58;100.00;98935.90;109565;1253;72380;-70
2023/01/10 01:05:24;;;;;;;16.40;6.80;;;;;;;4.56;100.00;98939.56;109459;1252;59322;-71
2023/01/10 01:08:14;;;;;;;15.30;5.90;;;;;;;4.51;100.00;98951.73;109665;1252;61165;-69
2023/01/10 01:11:01;;;;;;;13.50;6.40;;;;;;;4.45;100.00;98954.55;109658;1253;72288;-69
2023/01/10 01:13:50;;;;;;;15.00;6.30;;;;;;;4.42;100.00;98956.86;108893;1253;1002331;-69
2023/01/10 01:16:38;;;;;;;14.60;6.40;;;;;;;4.39;100.00;98967.10;109615;1252;72403;-70
2023/01/10 01:19:27;;;;;;;13.60;6.50;;;;;;;4.36;100.00;98975.17;109549;1252;58285;-70
2023/01/10 01:22:15;;;;;;;13.90;6.90;;;;;;;4.33;100.00;98976.16;109609;1253;59371;-70
2023/01/10 01:25:04;;;;;;;15.80;7.50;;;;;;;4.33;100.00;98980.31;109609;1251;72215;-70
2023/01/10 01:27:51;;;;;;;15.50;7.20;;;;;;;4.35;100.00;98976.32;109663;1253;67948;-70
2023/01/10 01:30:39;;;;;;;14.40;7.60;;;;;;;4.39;100.00;98982.55;109601;1252;73886;-68
2023/01/10 01:33:27;;;;;;;15.30;6.30;;;;;;;4.43;100.00;98984.75;109600;1255;57908;-70
2023/01/10 01:36:15;;;;;;;12.20;5.50;;;;;;;4.43;100.00;98981.58;109615;1251;59810;-70
2023/01/10 01:39:05;;;;;;;15.10;6.80;;;;;;;4.39;100.00;98983.77;109668;1252;72342;-71
2023/01/10 01:41:59;;;;;;;17.70;7.10;;;;;;;4.36;100.00;98984.88;109657;1251;68397;-70
2023/01/10 01:45:08;;;;;;;15.50;7.00;;;;;;;4.35;100.00;98988.63;109638;1253;71674;-70
2023/01/10 01:48:06;;;;;;;18.10;6.90;;;;;;;4.35;100.00;98993.55;109655;1253;59298;-70
2023/01/10 01:51:16;;;;;;;15.90;7.00;;;;;;;4.35;100.00;98991.95;109614;1253;61106;-70
2023/01/10 01:54:10;;;;;;;14.10;6.30;;;;;;;4.38;100.00;98994.75;109659;1252;73322;-71
2023/01/10 01:57:11;;;;;;;15.10;6.80;;;;;;;4.39;100.00;99000.27;109439;1253;67920;-71
2023/01/10 02:00:00;;;;;;;15.40;7.00;;;;;;;4.36;100.00;99001.69;109574;1252;72386;-71
2023/01/10 02:03:00;;;;;;;12.90;6.60;;;;;;;4.34;100.00;99003.64;109561;1252;56949;-70
2023/01/10 02:05:50;;;;;;;14.10;6.90;;;;;;;4.31;100.00;99008.27;109636;1253;59079;-70
2023/01/10 02:08:46;;;;;;;13.70;6.10;;;;;;;4.28;100.00;99014.56;109618;1253;73683;-71
2023/01/10 02:11:34;;;;;;;15.70;7.10;;;;;;;4.21;100.00;99022.26;109599;1253;69134;-70
2023/01/10 02:14:25;;;;;;;14.90;7.00;;;;;;;4.19;100.00;99024.50;109476;1251;72206;-68
2023/01/10 02:17:12;;;;;;;12.90;6.20;;;;;;;4.17;100.00;99026.77;109480;1253;57935;-69
2023/01/10 02:20:16;;;;;;;13.30;6.30;;;;;;;4.17;100.00;99030.11;109638;1252;60070;-67
2023/01/10 02:23:31;;;;;;;13.60;5.80;;;;;;;4.15;100.00;99034.91;109514;1253;71498;-68
2023/01/10 02:26:43;;;;;;;13.00;6.30;;;;;;;4.13;100.00;99040.20;109600;1252;67807;-67
2023/01/10 02:29:54;;;;;;;12.10;5.90;;;;;;;4.11;100.00;99040.50;109606;1253;73918;-69
2023/01/10 02:32:49;;;;;;;12.70;6.20;;;;;;;4.06;100.00;99043.95;109607;1251;57815;-68
2023/01/10 02:36:23;;;;;;;13.80;6.20;;;;;;;4.01;100.00;99047.98;109534;1252;59034;-68
2023/01/10 02:39:33;;;;;;;14.80;7.00;;;;;;;3.98;100.00;99051.73;109624;1252;73381;-68
2023/01/10 02:42:32;;;;;;;19.30;9.70;;;;;;;3.96;100.00;99051.16;109586;1253;67704;-69
2023/01/10 02:45:28;;;;;;;14.90;8.50;;;;;;;3.96;100.00;99051.86;109583;1253;73352;-68
2023/01/10 02:48:17;;;;;;;16.00;7.00;;;;;;;3.97;100.00;99053.54;109597;1251;59716;-68
2023/01/10 02:51:17;;;;;;;13.70;6.50;;;;;;;3.94;100.00;99050.88;109602;1253;60318;-68
2023/01/10 02:54:20;;;;;;;15.50;6.60;;;;;;;3.91;100.00;99048.79;109435;1253;205307;-69
2023/01/10 02:57:54;;;;;;;12.90;6.20;;;;;;;3.90;100.00;99048.52;109591;1253;66728;-69
2023/01/10 03:01:09;;;;;;;13.50;6.20;;;;;;;3.85;100.00;99053.74;109569;1253;73416;-68
2023/01/10 03:04:28;;;;;;;14.10;6.30;;;;;;;3.80;100.00;99059.91;109520;1253;57291;-69
2023/01/10 03:07:33;;;;;;;14.60;6.50;;;;;;;3.74;100.00;99068.67;109583;1253;61473;-67
2023/01/10 03:10:49;;;;;;;14.00;6.10;;;;;;;3.73;100.00;99071.71;109589;1252;70612;-68
2023/01/10 03:13:59;;;;;;;13.00;6.70;;;;;;;3.71;100.00;99075.05;109612;1253;66642;-68
2023/01/10 03:17:16;;;;;;;16.00;7.10;;;;;;;3.71;100.00;99078.88;109609;1254;72523;-68
2023/01/10 03:20:06;;;;;;;15.60;7.30;;;;;;;3.75;100.00;99080.77;109436;1252;59583;-68
2023/01/10 03:22:55;;;;;;;14.40;6.60;;;;;;;3.77;100.00;99084.30;109504;1252;58032;-67
2023/01/10 03:25:45;;;;;;;14.40;6.80;;;;;;;3.81;100.00;99082.50;109611;1253;73166;-69
2023/01/10 03:28:46;;;;;;;12.20;6.50;;;;;;;3.84;100.00;99089.33;109644;1253;67902;-70
2023/01/10 03:31:56;;;;;;;14.30;6.90;;;;;;;3.85;100.00;99094.81;109496;1254;71458;-69
2023/01/10 03:34:44;;;;;;;13.90;7.40;;;;;;;3.84;100.00;99096.27;109436;1253;57302;-70
2023/01/10 03:37:45;;;;;;;14.90;7.40;;;;;;;3.84;100.00;99096.46;109613;1253;60417;-69
2023/01/10 03:40:50;;;;;;;14.50;7.30;;;;;;;3.82;100.00;99092.94;109464;1253;73164;-69
2023/01/10 03:47:16;;;;;;;15.60;6.70;;;;;;;3.79;100.00;99105.05;109367;1256;73826;-70
2023/01/10 03:50:26;;;;;;;15.40;7.50;;;;;;;3.81;100.00;99108.60;109543;1255;59324;-68
2023/01/10 03:53:16;;;;;;;14.60;7.00;;;;;;;3.83;100.00;99115.37;108090;1254;1003001;-68
2023/01/10 03:56:06;;;;;;;14.10;7.20;;;;;;;3.84;100.00;99115.97;109613;1251;72959;-69
2023/01/10 03:58:54;;;;;;;16.70;7.00;;;;;;;3.83;100.00;99129.31;109630;1251;68075;-67
2023/01/10 04:01:42;;;;;;;15.00;6.30;;;;;;;3.86;100.00;99131.11;109609;1252;71326;-67
2023/01/10 04:04:31;;;;;;;15.50;6.70;;;;;;;3.83;100.00;99135.34;109585;1253;58887;-68
2023/01/10 04:07:19;;;;;;;17.80;8.10;;;;;;;3.77;100.00;99138.72;109626;1254;61518;-69
2023/01/10 04:10:08;;;;;;;16.20;7.50;;;;;;;3.72;100.00;99141.09;109596;1254;72775;-69
2023/01/10 04:13:00;;;;;;;15.80;7.10;;;;;;;3.68;100.00;99144.33;109600;1256;69099;-68
2023/01/10 04:15:47;;;;;;;14.50;7.20;;;;;;;3.63;100.00;99150.64;109593;1253;73562;-68
2023/01/10 04:18:35;;;;;;;14.70;7.40;;;;;;;3.56;100.00;99159.69;109561;1252;60314;-69
2023/01/10 04:21:27;;;;;;;14.40;7.00;;;;;;;3.49;100.00;99168.52;109582;1254;60393;-69
2023/01/10 04:24:16;;;;;;;15.70;7.60;;;;;;;3.44;100.00;99175.17;109397;1253;73129;-70
2023/01/10 04:27:04;;;;;;;16.60;7.70;;;;;;;3.41;100.00;99185.14;109456;1252;65438;-71
2023/01/10 04:29:52;;;;;;;14.70;7.70;;;;;;;3.41;100.00;99195.30;109567;1254;71797;-70
2023/01/10 04:32:40;;;;;;;15.90;7.80;;;;;;;3.41;100.00;99196.55;109570;1253;57306;-70
2023/01/10 04:35:28;;;;;;;15.60;7.10;;;;;;;3.40;100.00;99195.35;109618;1253;61379;-70
2023/01/10 04:38:16;;;;;;;17.60;8.30;;;;;;;3.41;100.00;99204.60;109591;1253;72440;-69
2023/01/10 04:41:04;;;;;;;18.10;7.90;;;;;;;3.45;100.00;99211.05;109606;1254;66754;-76
2023/01/10 04:43:52;;;;;;;16.30;8.20;;;;;;;3.47;100.00;99221.63;109544;1254;70448;-71
2023/01/10 04:46:40;;;;;;;16.10;7.40;;;;;;;3.48;100.00;99235.26;109576;1253;60777;-70
2023/01/10 04:49:28;;;;;;;16.80;7.90;;;;;;;3.47;100.00;99244.08;109493;1253;59240;-68
2023/01/10 04:52:16;;;;;;;17.20;8.80;;;;;;;3.46;100.00;99246.40;109554;1253;73135;-69
2023/01/10 04:55:04;;;;;;;21.00;10.10;;;;;;;3.46;100.00;99254.33;109611;1254;68050;-69
2023/01/10 04:57:51;;;;;;;20.00;10.50;;;;;;;3.47;100.00;99263.00;109528;1254;72920;-68
2023/01/10 05:00:40;;;;;;;21.50;9.90;;;;;;;3.49;100.00;99271.84;109568;1253;57363;-68
2023/01/10 05:03:27;;;;;;;20.10;9.60;;;;;;;3.51;100.00;99283.46;109539;1254;59179;-68
2023/01/10 05:06:16;;;;;;;18.30;9.60;;;;;;;3.52;100.00;99287.60;109582;1252;72692;-70
2023/01/10 05:09:04;;;;;;;24.40;11.20;;;;;;;3.55;100.00;99290.60;109405;1251;67691;-70
2023/01/10 05:11:52;;;;;;;24.10;10.40;;;;;;;3.55;100.00;99290.22;109570;1252;71402;-69
2023/01/10 05:14:42;;;;;;;18.10;10.00;;;;;;;3.56;100.00;99297.93;109566;1253;59292;-68
2023/01/10 05:17:30;;;;;;;22.10;9.70;;;;;;;3.57;100.00;99295.34;109601;1253;59005;-69
2023/01/10 05:20:18;;;;;;;21.20;10.30;;;;;;;3.60;100.00;99303.64;109551;1252;71570;-71
2023/01/10 05:23:06;;;;;;;18.70;8.90;;;;;;;3.61;100.00;99302.71;109493;1253;69146;-73
2023/01/10 05:26:14;;;;;;;21.20;9.60;;;;;;;3.60;100.00;99306.09;109548;1252;72493;-70
2023/01/10 05:29:02;;;;;;;24.30;10.70;;;;;;;3.58;100.00;99310.02;109485;1252;59956;-71
2023/01/10 05:31:51;;;;;;;21.00;10.40;;;;;;;3.57;100.00;99309.94;109496;1251;61321;-70
2023/01/10 05:34:38;;;;;;;20.40;10.40;;;;;;;3.60;100.00;99322.91;109507;1253;74254;-72
2023/01/10 05:37:26;;;;;;;22.30;10.10;;;;;;;3.60;100.00;99326.09;109527;1253;68022;-72
2023/01/10 05:40:14;;;;;;;21.90;10.40;;;;;;;3.59;100.00;99326.13;109514;1252;71486;-71
2023/01/10 05:43:02;;;;;;;18.70;9.60;;;;;;;3.61;100.00;99333.20;109499;1252;61038;-72
2023/01/10 05:45:50;;;;;;;22.90;10.00;;;;;;;3.64;100.00;99340.23;109485;1252;61055;-74
2023/01/10 05:48:38;;;;;;;19.30;9.70;;;;;;;3.66;100.00;99343.27;109607;1252;73063;-70
2023/01/10 05:51:26;;;;;;;19.10;9.30;;;;;;;3.66;100.00;99342.73;109529;1253;69082;-73
2023/01/10 05:54:14;;;;;;;16.10;8.50;;;;;;;3.64;100.00;99343.76;109556;1252;73718;-71
2023/01/10 05:57:01;;;;;;;16.70;8.10;;;;;;;3.58;100.00;99344.06;109474;1252;57334;-72
2023/01/10 05:59:50;;;;;;;21.10;10.30;;;;;;;3.51;100.00;99355.56;109541;1252;61140;-70
2023/01/10 06:02:39;;;;;;;22.10;11.20;;;;;;;3.45;100.00;99352.22;109566;1253;71888;-70
2023/01/10 06:05:27;;;;;;;18.90;10.30;;;;;;;3.42;100.00;99362.94;109563;1253;66428;-70
2023/01/10 06:08:16;;;;;;;20.60;9.70;;;;;;;3.39;100.00;99370.64;109479;1252;72861;-71
2023/01/10 06:11:04;;;;;;;22.50;10.10;;;;;;;3.36;100.00;99373.96;109465;1252;58752;-71
2023/01/10 06:13:54;;;;;;;21.40;9.80;;;;;;;3.35;100.00;99377.71;109516;1253;61540;-70
2023/01/10 06:16:42;;;;;;;17.80;9.30;;;;;;;3.35;100.00;99378.77;109488;1252;72300;-71
2023/01/10 06:19:30;;;;;;;21.50;9.80;;;;;;;3.34;100.00;99382.66;109509;1252;69471;-71
2023/01/10 06:22:18;;;;;;;21.70;10.20;;;;;;;3.34;100.00;99386.86;109563;1252;73045;-70
2023/01/10 06:25:06;;;;;;;20.70;9.80;;;;;;;3.36;100.00;99397.10;109488;1252;60458;-69
2023/01/10 06:27:53;;;;;;;21.70;10.60;;;;;;;3.36;100.00;99402.36;109500;1254;61600;-71
2023/01/10 06:30:42;;;;;;;20.00;9.10;;;;;;;3.38;100.00;99411.56;109488;1252;73831;-71
2023/01/10 06:33:34;;;;;;;21.50;9.90;;;;;;;3.38;100.00;99414.88;109530;1251;67857;-74
2023/01/10 06:36:21;;;;;;;19.00;9.40;;;;;;;3.35;100.00;99412.08;109487;1253;72684;-70
2023/01/10 06:39:09;;;;;;;20.10;10.20;;;;;;;3.32;100.00;99420.16;109494;1253;58805;-72
2023/01/10 06:41:57;;;;;;;20.70;10.50;;;;;;;3.28;100.00;99426.88;109464;1253;61707;-72
2023/01/10 06:44:45;;;;;;;21.30;10.20;;;;;;;3.25;100.00;99427.58;109465;1251;73931;-70
2023/01/10 06:47:33;;;;;;;21.50;11.40;;;;;;;3.23;100.00;99426.63;109513;1252;68647;-73
2023/01/10 06:50:21;;;;;;;21.50;10.20;;;;;;;3.20;100.00;99425.39;109448;1253;73736;-72
2023/01/10 06:53:08;;;;;;;25.40;13.00;;;;;;;3.17;100.00;99427.48;109444;1253;59534;-74
2023/01/10 06:55:56;;;;;;;25.50;12.60;;;;;;;3.14;100.00;99430.82;109489;1252;60024;-72
2023/01/10 06:58:48;;;;;;;23.50;11.20;;;;;;;3.09;100.00;99440.06;109534;1253;73091;-74
2023/01/10 07:01:36;;;;;;;22.00;10.80;;;;;;;3.02;100.00;99441.31;109525;1252;67632;-76
2023/01/10 07:04:25;;;;;;;23.30;11.40;;;;;;;2.97;100.00;99448.06;109420;1254;73688;-74
2023/01/10 07:07:13;;;;;;;22.90;10.70;;;;;;;2.96;100.00;99450.58;109454;1252;58759;-72
2023/01/10 07:10:02;;;;;;;22.90;10.90;;;;;;;2.95;100.00;99469.55;109450;1253;59955;-74
2023/01/10 07:12:50;;;;;;;22.00;10.60;;;;;;;2.93;100.00;99480.55;109476;1252;71516;-73
2023/01/10 07:15:38;;;;;;;20.10;10.80;;;;;;;2.92;100.00;99484.66;109528;1252;66430;-70
2023/01/10 07:18:26;;;;;;;21.50;10.80;;;;;;;2.92;100.00;99500.21;109478;1252;72762;-71
2023/01/10 07:21:15;;;;;;;23.30;10.40;;;;;;;2.94;100.00;99498.04;109509;1252;59205;-72
2023/01/10 07:24:03;;;;;;;22.60;10.70;;;;;;;2.95;100.00;99498.47;109584;1252;60101;-74
2023/01/10 07:26:55;;;;;;;22.80;11.00;;;;;;;2.96;100.00;99503.67;109530;1252;72116;-70
2023/01/10 07:29:43;;;;;;;23.00;10.50;;;;;;;2.97;100.00;99502.58;109566;1253;68135;-71
2023/01/10 07:32:32;;;;;;;21.80;10.40;;;;;;;2.96;100.00;99505.07;109476;1253;73643;-71
2023/01/10 07:35:22;;;;;;;24.60;11.30;;;;;;;2.98;100.00;99509.89;109488;1253;58430;-70
2023/01/10 07:38:09;;;;;;;23.90;10.70;;;;;;;3.01;100.00;99516.00;109548;1252;60598;-70
2023/01/10 07:40:59;;;;;;;20.50;9.50;;;;;;;3.06;100.00;99522.78;109474;1252;71709;-74
2023/01/10 07:43:48;;;;;;;19.70;10.10;;;;;;;3.09;100.00;99525.74;109534;1252;68582;-69
2023/01/10 07:46:35;;;;;;;23.30;9.80;;;;;;;3.16;100.00;99532.55;109548;1252;72397;-74
2023/01/10 07:49:23;;;;;;;23.20;10.80;;;;;;;3.23;100.00;99535.64;109436;1252;59158;-69
2023/01/10 07:52:11;;;;;;;20.40;9.90;;;;;;;3.32;100.00;99534.46;109473;1252;61485;-73
2023/01/10 07:54:58;;;;;;;20.60;10.80;;;;;;;3.41;100.00;99538.36;109453;1252;74171;-69
2023/01/10 07:57:46;;;;;;;21.50;10.40;;;;;;;3.51;100.00;99542.52;109510;1252;68854;-71
2023/01/10 08:00:34;;;;;;;24.40;11.10;;;;;;;3.65;100.00;99540.66;109537;1252;73725;-72
2023/01/10 08:03:23;;;;;;;21.50;10.20;;;;;;;3.76;100.00;99543.55;109478;1252;58379;-72
2023/01/10 08:06:11;;;;;;;25.40;13.00;;;;;;;3.84;100.00;99548.52;109524;1252;59174;-72
2023/01/10 08:09:02;;;;;;;24.10;11.20;;;;;;;3.94;100.00;99555.69;109537;1253;73999;-70
2023/01/10 08:11:50;;;;;;;21.90;11.40;;;;;;;4.02;99.93;99557.30;109450;1252;68032;-71
2023/01/10 08:14:37;;;;;;;21.40;10.30;;;;;;;4.08;99.85;99557.16;109541;1252;72667;-71
2023/01/10 08:17:25;;;;;;;23.30;10.20;;;;;;;4.18;99.67;99555.19;109521;1252;60698;-71
2023/01/10 08:20:13;;;;;;;21.20;9.30;;;;;;;4.27;99.03;99564.30;109492;1252;58741;-70
2023/01/10 08:23:01;;;;;;;21.10;9.20;;;;;;;4.36;98.27;99566.38;109489;1251;72969;-71
2023/01/10 08:25:50;;;;;;;20.50;9.20;;;;;;;4.47;97.89;99572.75;109499;1252;67786;-71
2023/01/10 08:28:38;;;;;;;23.30;10.70;;;;;;;4.61;97.34;99578.79;109470;1252;72929;-71
2023/01/10 08:31:26;;;;;;;23.90;10.40;;;;;;;4.75;96.65;99584.24;109578;1252;58967;-69
2023/01/10 08:34:14;;;;;;;23.40;10.60;;;;;;;5.11;95.39;99586.27;109578;1251;59898;-70
2023/01/10 08:37:02;;;;;;;23.40;9.60;;;;;;;5.72;95.39;99587.13;109555;1251;73127;-71
2023/01/10 08:39:50;;;;;;;20.50;10.50;;;;;;;6.13;92.18;99590.14;109525;1252;66381;-70
2023/01/10 08:42:38;;;;;;;21.90;10.20;;;;;;;6.38;91.20;99592.34;109421;1252;72703;-71
2023/01/10 08:45:26;;;;;;;19.90;9.70;;;;;;;6.38;89.72;99599.02;109532;1252;57526;-71
2023/01/10 08:48:14;;;;;;;17.50;9.20;;;;;;;6.38;88.85;99605.52;108775;1252;1002846;-68
2023/01/10 08:51:08;;;;;;;23.90;10.40;;;;;;;6.38;87.93;99615.05;109493;1251;72997;-71
2023/01/10 08:53:56;;;;;;;26.10;10.80;;;;;;;6.43;87.57;99624.58;109469;1252;68071;-68
2023/01/10 08:56:44;;;;;;;22.10;10.30;;;;;;;6.79;87.06;99624.96;109526;1251;73151;-69
2023/01/10 08:59:31;;;;;;;23.00;10.80;;;;;;;7.42;85.70;99629.58;109470;1252;60074;-71
2023/01/10 09:02:19;;;;;;;27.40;11.50;;;;;;;8.07;79.85;99630.30;109487;1252;61301;-71
2023/01/10 09:05:08;;;;;;;22.70;10.90;;;;;;;8.52;78.71;99628.65;109519;1252;70749;-69
2023/01/10 09:08:13;;;;;;;22.80;11.10;;;;;;;8.93;76.43;99631.38;109535;1251;66730;-71
2023/01/10 09:11:01;;;;;;;23.40;10.80;;;;;;;8.98;74.02;99628.86;109502;1252;73428;-70
2023/01/10 09:13:50;;;;;;;22.70;11.40;;;;;;;8.92;72.19;99632.27;109525;1252;58131;-74
2023/01/10 09:16:38;;;;;;;22.50;10.80;;;;;;;8.91;73.88;99639.12;109493;1252;61770;-71
2023/01/10 09:19:26;;;;;;;22.80;11.00;;;;;;;8.80;73.31;99640.11;109526;1252;71659;-72
2023/01/10 09:22:14;;;;;;;21.50;10.10;;;;;;;8.59;73.44;99652.31;109482;1252;67908;-69
2023/01/10 09:25:04;;;;;;;19.60;9.50;;;;;;;8.39;74.42;99652.59;109571;1252;71198;-72
2023/01/10 09:28:00;;;;;;;25.00;11.10;;;;;;;8.13;75.17;99658.69;109536;1252;58148;-71
2023/01/10 09:30:47;;;;;;;24.60;11.80;;;;;;;7.87;75.34;99665.23;109486;1251;60177;-73
2023/01/10 09:33:35;;;;;;;21.30;10.20;;;;;;;7.62;76.79;99667.52;109520;1252;72662;-70
2023/01/10 09:36:34;;;;;;;19.40;9.30;;;;;;;7.40;77.18;99675.04;109518;1252;68354;-70
2023/01/10 09:39:21;;;;;;;23.30;10.90;;;;;;;7.17;77.51;99673.33;109555;1252;72782;-70
2023/01/10 09:42:18;;;;;;;22.90;10.80;;;;;;;7.07;78.47;99675.93;109487;1252;57277;-72
2023/01/10 09:45:30;;;;;;;22.90;11.00;;;;;;;6.97;78.46;99673.62;109477;1252;59117;-71
2023/01/10 09:48:33;;;;;;;21.20;9.70;;;;;;;6.96;79.09;99678.45;109528;1253;72831;-72
2023/01/10 09:51:39;;;;;;;20.20;9.80;;;;;;;7.03;79.30;99682.04;109494;1252;67981;-70
2023/01/10 09:54:33;;;;;;;23.40;10.90;;;;;;;7.10;79.46;99681.79;109493;1253;71586;-73
2023/01/10 09:57:22;;;;;;;21.90;11.20;;;;;;;7.17;79.34;99683.72;109483;1252;58114;-72
2023/01/10 10:00:22;;;;;;;21.80;10.40;;;;;;;7.37;79.25;99690.66;109486;1252;59113;-70
2023/01/10 10:03:35;;;;;;;19.60;9.60;;;;;;;7.60;78.04;99692.25;109360;1252;72379;-71
2023/01/10 10:06:26;;;;;;;20.10;9.90;;;;;;;7.98;77.12;99693.92;109515;1252;68880;-70
2023/01/10 10:09:20;;;;;;;19.60;10.70;;;;;;;8.34;75.49;99692.55;109461;1252;71832;-71
2023/01/10 10:12:54;;;;;;;17.90;9.60;;;;;;;8.71;74.93;99695.46;109510;1252;57451;-71
2023/01/10 10:16:10;;;;;;;17.80;9.80;;;;;;;9.13;73.48;99692.64;109429;1252;60998;-70
2023/01/10 10:19:25;;;;;;;19.10;11.20;;;;;;;9.61;70.30;99694.02;109475;1252;73282;-72
2023/01/10 10:22:28;;;;;;;21.20;12.00;;;;;;;9.94;69.64;99690.48;109492;1252;68001;-69
2023/01/10 10:25:42;;;;;;;18.70;11.20;;;;;;;10.15;68.82;99693.73;109556;1252;73858;-68
2023/01/10 10:28:54;;;;;;;24.20;12.10;;;;;;;10.20;66.73;99695.63;109496;1251;57731;-70
2023/01/10 10:32:00;;;;;;;25.30;12.70;;;;;;;10.24;66.62;99704.58;109514;1252;60464;-72
2023/01/10 10:35:30;;;;;;;27.00;13.70;;;;;;;10.12;65.69;99708.36;109520;1253;73531;-70
2023/01/10 10:38:28;;;;;;;24.30;13.30;;;;;;;10.18;66.87;99709.67;109515;1252;69095;-72
2023/01/10 10:41:41;;;;;;;18.80;10.10;;;;;;;10.54;66.26;99706.89;109523;1253;71199;-71
2023/01/10 10:44:34;;;;;;;22.20;11.30;;;;;;;10.44;65.16;99707.95;109523;1252;57399;-71
2023/01/10 10:47:23;;;;;;;22.80;11.50;;;;;;;9.94;65.91;99709.63;109589;1251;60044;-72
2023/01/10 10:50:33;;;;;;;20.70;11.40;;;;;;;9.56;67.67;99713.54;109543;1253;71985;-69
2023/01/10 10:53:21;;;;;;;23.00;11.80;;;;;;;9.22;68.71;99710.33;109569;1251;68620;-70
2023/01/10 10:56:16;;;;;;;23.60;11.60;;;;;;;8.91;69.94;99716.40;109549;1252;71546;-74
2023/01/10 10:59:04;;;;;;;20.90;10.70;;;;;;;8.52;71.07;99715.62;108819;1251;1002360;-70
2023/01/10 11:01:52;;;;;;;20.90;11.20;;;;;;;8.23;72.28;99719.69;109511;1252;61078;-72
2023/01/10 11:04:40;;;;;;;25.10;13.00;;;;;;;7.97;73.62;99720.80;109412;1251;74175;-70
2023/01/10 11:07:35;;;;;;;22.70;11.10;;;;;;;7.74;74.57;99722.64;109546;1252;67647;-69
2023/01/10 11:10:35;;;;;;;26.80;12.20;;;;;;;7.47;76.00;99730.57;109492;1252;72511;-71
2023/01/10 11:13:23;;;;;;;25.60;12.70;;;;;;;7.31;77.22;99728.84;109565;1252;57325;-71
2023/01/10 11:16:31;;;;;;;25.20;12.50;;;;;;;7.24;78.08;99726.30;109611;1251;59015;-70
2023/01/10 11:19:25;;;;;;;26.90;12.40;;;;;;;7.10;78.73;99728.17;109514;1251;74581;-70
2023/01/10 11:22:15;;;;;;;24.80;11.30;;;;;;;6.95;79.57;99727.44;109512;1252;67858;-69
2023/01/10 11:25:04;;;;;;;26.00;12.50;;;;;;;6.85;80.38;99729.33;109405;1253;72741;-71
2023/01/10 11:27:56;;;;;;;23.20;11.40;;;;;;;6.79;80.90;99736.74;109456;1252;58990;-71
2023/01/10 11:30:49;;;;;;;26.20;13.00;;;;;;;6.72;81.45;99738.48;109501;1252;61358;-70
2023/01/10 11:33:38;;;;;;;24.90;12.00;;;;;;;6.70;82.43;99742.66;109488;1252;73142;-70
2023/01/10 11:36:26;;;;;;;23.90;11.90;;;;;;;6.69;82.54;99742.77;109528;1252;67597;-71
2023/01/10 11:39:16;;;;;;;23.70;11.50;;;;;;;6.64;82.87;99751.71;109493;1252;73606;-73
2023/01/10 11:42:23;;;;;;;24.30;12.30;;;;;;;6.61;83.45;99759.27;109480;1252;57424;-72
2023/01/10 11:45:23;;;;;;;21.80;11.70;;;;;;;6.60;83.99;99760.63;109506;1252;60189;-71
2023/01/10 11:48:21;;;;;;;25.10;12.50;;;;;;;6.55;83.99;99762.36;109471;1252;72246;-73
2023/01/10 11:51:37;;;;;;;23.80;11.80;;;;;;;6.50;84.30;99764.74;109446;1253;67612;-72
2023/01/10 11:54:27;;;;;;;28.20;13.00;;;;;;;6.45;84.62;99764.58;109356;1252;71543;-73
2023/01/10 11:57:20;;;;;;;27.10;13.40;;;;;;;6.46;84.61;99771.52;109574;1252;57424;-71
2023/01/10 12:00:09;;;;;;;24.20;11.60;;;;;;;6.50;85.17;99773.61;109423;1252;60176;-71
2023/01/10 12:03:01;;;;;;;20.40;10.90;;;;;;;6.49;85.17;99770.33;109452;1252;73160;-72
2023/01/10 12:05:52;;;;;;;25.40;12.20;;;;;;;6.50;85.20;99783.13;109526;1252;67869;-72
2023/01/10 12:08:41;;;;;;;27.20;11.90;;;;;;;6.47;85.37;99792.61;109501;1252;73271;-71
2023/01/10 12:11:33;;;;;;;29.50;13.30;;;;;;;6.36;85.91;99792.50;109220;1252;58999;-71
2023/01/10 12:14:20;;;;;;;28.50;14.10;;;;;;;6.34;86.48;99796.33;109545;1252;60219;-72
2023/01/10 12:17:35;;;;;;;27.90;13.40;;;;;;;6.37;86.67;99799.79;109465;1252;72755;-72
2023/01/10 12:20:27;;;;;;;26.80;13.50;;;;;;;6.40;86.78;99799.44;109299;1253;67871;-72
2023/01/10 12:23:24;;;;;;;24.90;12.60;;;;;;;6.41;87.02;99804.83;109494;1253;71204;-70
2023/01/10 12:26:13;;;;;;;25.20;11.90;;;;;;;6.43;87.72;99806.25;109420;1251;57500;-71
2023/01/10 12:29:29;;;;;;;24.90;11.60;;;;;;;6.45;87.41;99810.77;109621;1252;61349;-72
2023/01/10 12:32:28;;;;;;;25.80;11.90;;;;;;;6.43;87.71;99812.30;109573;1252;73849;-70
2023/01/10 12:35:48;;;;;;;24.50;12.50;;;;;;;6.36;87.16;99812.93;109547;1252;68782;-72
2023/01/10 12:39:03;;;;;;;25.20;12.70;;;;;;;6.32;87.69;99813.53;109538;1252;72309;-72
2023/01/10 12:45:42;;;;;;;20.10;9.90;;;;;;;6.25;88.36;99828.76;109571;1252;60219;-72
2023/01/10 12:48:48;;;;;;;25.40;12.50;;;;;;;6.23;88.53;99831.02;109538;1251;73222;-71
2023/01/10 12:51:36;;;;;;;25.90;11.90;;;;;;;6.20;88.91;99828.21;109497;1251;68647;-71
2023/01/10 12:54:28;;;;;;;22.60;11.60;;;;;;;6.18;89.18;99824.11;109407;1253;72521;-71
2023/01/10 12:57:31;;;;;;;29.30;13.70;;;;;;;6.18;89.33;99829.91;109531;1253;58758;-71
2023/01/10 13:00:45;;;;;;;25.10;12.10;;;;;;;6.13;89.06;99844.46;109593;1251;60038;-70
2023/01/10 13:03:38;;;;;;;26.30;12.70;;;;;;;6.12;89.52;99848.96;109495;1252;73195;-74
2023/01/10 13:06:36;;;;;;;27.40;14.40;;;;;;;6.12;89.68;99853.73;109561;1253;66664;-72
2023/01/10 13:09:31;;;;;;;26.70;14.60;;;;;;;6.09;89.71;99854.42;109223;1256;72465;-72
2023/01/10 13:12:34;;;;;;;27.40;13.90;;;;;;;6.09;89.92;99854.95;109230;1255;58147;-72
2023/01/10 13:15:27;;;;;;;26.90;13.50;;;;;;;6.05;89.97;99855.39;109227;1255;60614;-72
2023/01/10 13:18:22;;;;;;;31.80;15.40;;;;;;;5.95;90.19;99858.93;109128;1255;72512;-73
2023/01/10 13:21:14;;;;;;;31.00;16.10;;;;;;;5.90;90.45;99863.48;109354;1256;68804;-72
2023/01/10 13:24:17;;;;;;;31.20;16.40;;;;;;;5.83;90.43;99862.84;109072;1256;71946;-73
2023/01/10 13:27:05;;;;;;;34.10;16.40;;;;;;;5.78;90.80;99858.76;109060;1256;59651;-71
2023/01/10 13:29:53;;;;;;;33.40;16.10;;;;;;;5.77;90.97;99857.42;109061;1259;58779;-72
2023/01/10 13:32:41;;;;;;;36.80;17.10;;;;;;;5.80;91.31;99861.44;109189;1256;71961;-71